sensor_id;sensor_type;location;lat;lon;timestamp;temperature;humidity
6581;DHT22;3324;50.796;7.228;2023-06-14T00:02:12;18.70;99.90
6581;DHT22;3324;50.796;7.228;2023-06-14T00:04:38;18.60;99.90
6581;DHT22;3324;50.796;7.228;2023-06-14T00:07:05;18.60;99.90
6581;DHT22;3324;50.796;7.228;2023-06-14T00:09:34;18.50;99.90
6581;DHT22;3324;50.796;7.228;2023-06-14T00:12:00;18.50;99.90
6581;DHT22;3324;50.796;7.228;2023-06-14T00:14:25;18.50;99.90
6581;DHT22;3324;50.796;7.228;2023-06-14T00:16:51;18.50;99.90
6581;DHT22;3324;50.796;7.228;2023-06-14T00:19:18;18.40;99.90
6581;DHT22;3324;50.796;7.228;2023-06-14T00:21:45;18.40;99.90
6581;DHT22;3324;50.796;7.228;2023-06-14T00:24:11;18.40;99.90
6581;DHT22;3324;50.796;7.228;2023-06-14T00:26:36;18.30;99.90
6581;DHT22;3324;50.796;7.228;2023-06-14T00:29:02;18.30;99.90
6581;DHT22;3324;50.796;7.228;2023-06-14T00:31:28;18.20;99.90
6581;DHT22;3324;50.796;7.228;2023-06-14T00:33:54;18.10;99.90
6581;DHT22;3324;50.796;7.228;2023-06-14T00:36:19;18.20;99.90
6581;DHT22;3324;50.796;7.228;2023-06-14T00:38:45;18.10;99.90
6581;DHT22;3324;50.796;7.228;2023-06-14T00:41:10;18.10;99.90
6581;DHT22;3324;50.796;7.228;2023-06-14T00:43:36;18.00;99.90
6581;DHT22;3324;50.796;7.228;2023-06-14T00:46:02;18.00;99.90
6581;DHT22;3324;50.796;7.228;2023-06-14T00:48:28;18.00;99.90
6581;DHT22;3324;50.796;7.228;2023-06-14T00:50:54;17.90;99.90
6581;DHT22;3324;50.796;7.228;2023-06-14T00:53:20;17.80;99.90
6581;DHT22;3324;50.796;7.228;2023-06-14T00:55:48;17.80;99.90
6581;DHT22;3324;50.796;7.228;2023-06-14T00:58:14;17.70;99.90
6581;DHT22;3324;50.796;7.228;2023-06-14T01:00:40;17.60;99.90
6581;DHT22;3324;50.796;7.228;2023-06-14T01:03:05;17.60;99.90
6581;DHT22;3324;50.796;7.228;2023-06-14T01:05:31;17.60;99.90
6581;DHT22;3324;50.796;7.228;2023-06-14T01:10:35;17.60;99.90
6581;DHT22;3324;50.796;7.228;2023-06-14T01:16:25;17.60;99.90
6581;DHT22;3324;50.796;7.228;2023-06-14T01:18:52;17.60;99.90
6581;DHT22;3324;50.796;7.228;2023-06-14T01:21:24;17.60;99.90
6581;DHT22;3324;50.796;7.228;2023-06-14T01:23:51;17.50;99.90
6581;DHT22;3324;50.796;7.228;2023-06-14T01:26:23;17.50;99.90
6581;DHT22;3324;50.796;7.228;2023-06-14T01:28:50;17.50;99.90
6581;DHT22;3324;50.796;7.228;2023-06-14T01:31:20;17.40;99.90
6581;DHT22;3324;50.796;7.228;2023-06-14T01:33:48;17.50;99.90
6581;DHT22;3324;50.796;7.228;2023-06-14T01:36:19;17.40;99.90
6581;DHT22;3324;50.796;7.228;2023-06-14T01:38:47;17.30;99.90
6581;DHT22;3324;50.796;7.228;2023-06-14T01:41:16;17.20;99.90
6581;DHT22;3324;50.796;7.228;2023-06-14T01:43:42;17.20;99.90
6581;DHT22;3324;50.796;7.228;2023-06-14T01:46:09;17.10;99.90
6581;DHT22;3324;50.796;7.228;2023-06-14T01:48:35;17.10;99.90
6581;DHT22;3324;50.796;7.228;2023-06-14T01:51:01;17.00;99.90
6581;DHT22;3324;50.796;7.228;2023-06-14T01:53:26;17.00;99.90
6581;DHT22;3324;50.796;7.228;2023-06-14T01:55:52;17.00;99.90
6581;DHT22;3324;50.796;7.228;2023-06-14T01:58:19;16.90;99.90
6581;DHT22;3324;50.796;7.228;2023-06-14T02:00:45;16.90;99.90
6581;DHT22;3324;50.796;7.228;2023-06-14T02:03:11;16.90;99.90
6581;DHT22;3324;50.796;7.228;2023-06-14T02:05:37;16.90;99.90
6581;DHT22;3324;50.796;7.228;2023-06-14T02:08:05;16.90;99.90
6581;DHT22;3324;50.796;7.228;2023-06-14T02:10:31;16.90;99.90
6581;DHT22;3324;50.796;7.228;2023-06-14T02:12:56;16.80;99.90
6581;DHT22;3324;50.796;7.228;2023-06-14T02:15:22;16.80;99.90
6581;DHT22;3324;50.796;7.228;2023-06-14T02:17:48;16.90;99.90
6581;DHT22;3324;50.796;7.228;2023-06-14T02:20:17;16.80;99.90
6581;DHT22;3324;50.796;7.228;2023-06-14T02:22:43;16.80;99.90
6581;DHT22;3324;50.796;7.228;2023-06-14T02:25:09;16.80;99.90
6581;DHT22;3324;50.796;7.228;2023-06-14T02:27:35;16.80;99.90
6581;DHT22;3324;50.796;7.228;2023-06-14T02:30:00;16.70;99.90
6581;DHT22;3324;50.796;7.228;2023-06-14T02:32:26;16.70;99.90
6581;DHT22;3324;50.796;7.228;2023-06-14T02:34:53;16.70;99.90
6581;DHT22;3324;50.796;7.228;2023-06-14T02:37:19;16.70;99.90
6581;DHT22;3324;50.796;7.228;2023-06-14T02:39:45;16.70;99.90
6581;DHT22;3324;50.796;7.228;2023-06-14T02:42:10;16.70;99.90
6581;DHT22;3324;50.796;7.228;2023-06-14T02:44:36;16.70;99.90
6581;DHT22;3324;50.796;7.228;2023-06-14T02:47:02;16.60;99.90
6581;DHT22;3324;50.796;7.228;2023-06-14T02:49:28;16.60;99.90
6581;DHT22;3324;50.796;7.228;2023-06-14T02:51:55;16.50;99.90
6581;DHT22;3324;50.796;7.228;2023-06-14T02:54:20;16.50;99.90
6581;DHT22;3324;50.796;7.228;2023-06-14T02:56:46;16.50;99.90
6581;DHT22;3324;50.796;7.228;2023-06-14T02:59:11;16.50;99.90
6581;DHT22;3324;50.796;7.228;2023-06-14T03:01:39;16.60;99.90
6581;DHT22;3324;50.796;7.228;2023-06-14T03:04:09;16.60;99.90
6581;DHT22;3324;50.796;7.228;2023-06-14T03:06:35;16.60;99.90
6581;DHT22;3324;50.796;7.228;2023-06-14T03:09:02;16.60;99.90
6581;DHT22;3324;50.796;7.228;2023-06-14T03:11:30;16.50;99.90
6581;DHT22;3324;50.796;7.228;2023-06-14T03:13:56;16.50;99.90
6581;DHT22;3324;50.796;7.228;2023-06-14T03:16:22;16.50;99.90
6581;DHT22;3324;50.796;7.228;2023-06-14T03:18:51;16.50;99.90
6581;DHT22;3324;50.796;7.228;2023-06-14T03:21:17;16.50;99.90
6581;DHT22;3324;50.796;7.228;2023-06-14T03:23:43;16.50;99.90
6581;DHT22;3324;50.796;7.228;2023-06-14T03:26:09;16.50;99.90
6581;DHT22;3324;50.796;7.228;2023-06-14T03:28:38;16.50;99.90
6581;DHT22;3324;50.796;7.228;2023-06-14T03:31:03;16.40;99.90
6581;DHT22;3324;50.796;7.228;2023-06-14T03:33:29;16.40;99.90
6581;DHT22;3324;50.796;7.228;2023-06-14T03:35:55;16.40;99.90
6581;DHT22;3324;50.796;7.228;2023-06-14T03:38:21;16.40;99.90
6581;DHT22;3324;50.796;7.228;2023-06-14T03:40:47;16.40;99.90
6581;DHT22;3324;50.796;7.228;2023-06-14T03:43:12;16.50;99.90
6581;DHT22;3324;50.796;7.228;2023-06-14T03:45:38;16.50;99.90
6581;DHT22;3324;50.796;7.228;2023-06-14T03:48:04;16.60;99.90
6581;DHT22;3324;50.796;7.228;2023-06-14T03:50:32;16.60;99.90
6581;DHT22;3324;50.796;7.228;2023-06-14T03:52:58;16.60;99.90
6581;DHT22;3324;50.796;7.228;2023-06-14T03:55:23;16.70;99.90
6581;DHT22;3324;50.796;7.228;2023-06-14T03:57:51;16.70;99.90
6581;DHT22;3324;50.796;7.228;2023-06-14T04:00:17;16.60;99.90
6581;DHT22;3324;50.796;7.228;2023-06-14T04:02:43;16.70;99.90
6581;DHT22;3324;50.796;7.228;2023-06-14T04:05:10;16.60;99.90
6581;DHT22;3324;50.796;7.228;2023-06-14T04:07:36;16.60;99.90
6581;DHT22;3324;50.796;7.228;2023-06-14T04:10:11;16.60;99.90
6581;DHT22;3324;50.796;7.228;2023-06-14T04:12:37;16.60;99.90
6581;DHT22;3324;50.796;7.228;2023-06-14T04:15:03;16.60;99.90
6581;DHT22;3324;50.796;7.228;2023-06-14T04:20:51;16.60;99.90
6581;DHT22;3324;50.796;7.228;2023-06-14T04:23:17;16.70;99.90
6581;DHT22;3324;50.796;7.228;2023-06-14T04:25:46;16.80;99.90
6581;DHT22;3324;50.796;7.228;2023-06-14T04:28:12;16.80;99.90
6581;DHT22;3324;50.796;7.228;2023-06-14T04:30:39;17.00;99.90
6581;DHT22;3324;50.796;7.228;2023-06-14T04:33:06;17.00;99.90
6581;DHT22;3324;50.796;7.228;2023-06-14T04:35:32;17.20;99.90
6581;DHT22;3324;50.796;7.228;2023-06-14T04:37:58;17.30;99.90
6581;DHT22;3324;50.796;7.228;2023-06-14T04:40:24;17.30;99.90
6581;DHT22;3324;50.796;7.228;2023-06-14T04:42:50;17.40;99.90
6581;DHT22;3324;50.796;7.228;2023-06-14T04:45:16;17.40;99.90
6581;DHT22;3324;50.796;7.228;2023-06-14T04:47:42;17.50;99.90
6581;DHT22;3324;50.796;7.228;2023-06-14T04:50:09;17.50;99.90
6581;DHT22;3324;50.796;7.228;2023-06-14T04:52:36;17.50;99.90
6581;DHT22;3324;50.796;7.228;2023-06-14T04:55:03;17.50;99.90
6581;DHT22;3324;50.796;7.228;2023-06-14T04:57:28;17.60;99.90
6581;DHT22;3324;50.796;7.228;2023-06-14T04:59:55;17.60;99.90
6581;DHT22;3324;50.796;7.228;2023-06-14T05:02:24;17.80;99.90
6581;DHT22;3324;50.796;7.228;2023-06-14T05:04:50;17.80;99.90
6581;DHT22;3324;50.796;7.228;2023-06-14T05:07:16;17.80;99.90
6581;DHT22;3324;50.796;7.228;2023-06-14T05:09:42;17.90;99.90
6581;DHT22;3324;50.796;7.228;2023-06-14T05:12:07;17.90;99.90
6581;DHT22;3324;50.796;7.228;2023-06-14T05:14:33;17.90;99.90
6581;DHT22;3324;50.796;7.228;2023-06-14T05:17:00;17.90;99.90
6581;DHT22;3324;50.796;7.228;2023-06-14T05:19:25;18.00;99.90
6581;DHT22;3324;50.796;7.228;2023-06-14T05:21:51;18.10;99.90
6581;DHT22;3324;50.796;7.228;2023-06-14T05:24:18;18.30;99.90
6581;DHT22;3324;50.796;7.228;2023-06-14T05:26:44;18.30;99.90
6581;DHT22;3324;50.796;7.228;2023-06-14T05:29:09;18.40;99.90
6581;DHT22;3324;50.796;7.228;2023-06-14T05:31:35;18.50;99.90
6581;DHT22;3324;50.796;7.228;2023-06-14T05:34:01;18.60;99.90
6581;DHT22;3324;50.796;7.228;2023-06-14T05:36:26;18.60;99.90
6581;DHT22;3324;50.796;7.228;2023-06-14T05:38:53;18.70;99.90
6581;DHT22;3324;50.796;7.228;2023-06-14T05:41:26;18.80;99.90
6581;DHT22;3324;50.796;7.228;2023-06-14T05:43:54;18.90;99.90
6581;DHT22;3324;50.796;7.228;2023-06-14T05:46:20;19.00;99.90
6581;DHT22;3324;50.796;7.228;2023-06-14T05:48:48;19.10;99.90
6581;DHT22;3324;50.796;7.228;2023-06-14T05:51:14;19.20;99.90
6581;DHT22;3324;50.796;7.228;2023-06-14T05:53:40;19.30;99.90
6581;DHT22;3324;50.796;7.228;2023-06-14T05:56:05;19.50;99.90
6581;DHT22;3324;50.796;7.228;2023-06-14T05:58:31;19.60;99.90
6581;DHT22;3324;50.796;7.228;2023-06-14T06:00:57;19.70;99.90
6581;DHT22;3324;50.796;7.228;2023-06-14T06:03:23;19.80;99.90
6581;DHT22;3324;50.796;7.228;2023-06-14T06:05:48;19.90;99.90
6581;DHT22;3324;50.796;7.228;2023-06-14T06:08:14;20.00;99.90
6581;DHT22;3324;50.796;7.228;2023-06-14T06:10:42;20.10;99.90
6581;DHT22;3324;50.796;7.228;2023-06-14T06:13:07;20.20;99.90
6581;DHT22;3324;50.796;7.228;2023-06-14T06:15:33;20.30;99.90
6581;DHT22;3324;50.796;7.228;2023-06-14T06:17:58;20.40;99.90
6581;DHT22;3324;50.796;7.228;2023-06-14T06:20:24;20.50;99.90
6581;DHT22;3324;50.796;7.228;2023-06-14T06:22:54;20.60;99.90
6581;DHT22;3324;50.796;7.228;2023-06-14T06:25:19;20.60;99.90
6581;DHT22;3324;50.796;7.228;2023-06-14T06:31:07;20.90;99.90
6581;DHT22;3324;50.796;7.228;2023-06-14T06:33:33;21.00;99.90
6581;DHT22;3324;50.796;7.228;2023-06-14T06:35:58;21.10;99.90
6581;DHT22;3324;50.796;7.228;2023-06-14T06:38:24;21.20;99.70
6581;DHT22;3324;50.796;7.228;2023-06-14T06:40:50;21.30;99.30
6581;DHT22;3324;50.796;7.228;2023-06-14T06:43:16;21.40;98.50
6581;DHT22;3324;50.796;7.228;2023-06-14T06:45:43;21.50;98.10
6581;DHT22;3324;50.796;7.228;2023-06-14T06:48:08;21.60;96.70
6581;DHT22;3324;50.796;7.228;2023-06-14T06:50:37;21.60;98.00
6581;DHT22;3324;50.796;7.228;2023-06-14T06:53:02;21.70;98.60
6581;DHT22;3324;50.796;7.228;2023-06-14T06:55:28;21.90;99.90
6581;DHT22;3324;50.796;7.228;2023-06-14T06:57:54;22.10;99.90
6581;DHT22;3324;50.796;7.228;2023-06-14T07:00:20;22.20;99.90
6581;DHT22;3324;50.796;7.228;2023-06-14T07:02:46;22.30;99.90
6581;DHT22;3324;50.796;7.228;2023-06-14T07:05:12;22.30;96.40
6581;DHT22;3324;50.796;7.228;2023-06-14T07:07:38;22.40;95.80
6581;DHT22;3324;50.796;7.228;2023-06-14T07:10:04;22.30;95.20
6581;DHT22;3324;50.796;7.228;2023-06-14T07:12:31;22.30;93.90
6581;DHT22;3324;50.796;7.228;2023-06-14T07:14:59;22.30;94.00
6581;DHT22;3324;50.796;7.228;2023-06-14T07:17:25;22.20;93.30
6581;DHT22;3324;50.796;7.228;2023-06-14T07:19:50;22.30;93.40
6581;DHT22;3324;50.796;7.228;2023-06-14T07:22:16;22.50;93.20
6581;DHT22;3324;50.796;7.228;2023-06-14T07:24:43;22.60;94.30
6581;DHT22;3324;50.796;7.228;2023-06-14T07:27:08;22.70;92.50
6581;DHT22;3324;50.796;7.228;2023-06-14T07:29:34;22.90;93.50
6581;DHT22;3324;50.796;7.228;2023-06-14T07:32:00;22.90;91.40
6581;DHT22;3324;50.796;7.228;2023-06-14T07:34:25;23.00;91.70
6581;DHT22;3324;50.796;7.228;2023-06-14T07:36:52;23.20;91.80
6581;DHT22;3324;50.796;7.228;2023-06-14T07:39:19;23.20;90.30
6581;DHT22;3324;50.796;7.228;2023-06-14T07:41:45;23.20;90.20
6581;DHT22;3324;50.796;7.228;2023-06-14T07:44:10;23.20;90.10
6581;DHT22;3324;50.796;7.228;2023-06-14T07:46:37;23.20;90.00
6581;DHT22;3324;50.796;7.228;2023-06-14T07:49:03;23.40;90.30
6581;DHT22;3324;50.796;7.228;2023-06-14T07:51:29;23.40;88.80
6581;DHT22;3324;50.796;7.228;2023-06-14T07:53:55;23.50;88.70
6581;DHT22;3324;50.796;7.228;2023-06-14T07:56:20;23.60;86.30
6581;DHT22;3324;50.796;7.228;2023-06-14T07:58:46;23.60;87.30
6581;DHT22;3324;50.796;7.228;2023-06-14T08:01:12;23.70;86.00
6581;DHT22;3324;50.796;7.228;2023-06-14T08:03:39;23.80;85.00
6581;DHT22;3324;50.796;7.228;2023-06-14T08:06:06;23.80;82.80
6581;DHT22;3324;50.796;7.228;2023-06-14T08:08:32;23.80;81.00
6581;DHT22;3324;50.796;7.228;2023-06-14T08:10:57;24.00;82.20
6581;DHT22;3324;50.796;7.228;2023-06-14T08:13:23;24.10;81.10
6581;DHT22;3324;50.796;7.228;2023-06-14T08:15:48;24.20;79.80
6581;DHT22;3324;50.796;7.228;2023-06-14T08:18:14;24.20;77.40
6581;DHT22;3324;50.796;7.228;2023-06-14T08:20:40;24.10;77.50
6581;DHT22;3324;50.796;7.228;2023-06-14T08:23:05;24.20;77.20
6581;DHT22;3324;50.796;7.228;2023-06-14T08:25:31;24.30;77.00
6581;DHT22;3324;50.796;7.228;2023-06-14T08:27:57;24.50;75.90
6581;DHT22;3324;50.796;7.228;2023-06-14T08:30:22;24.50;73.40
6581;DHT22;3324;50.796;7.228;2023-06-14T08:32:48;24.70;73.00
6581;DHT22;3324;50.796;7.228;2023-06-14T08:35:14;24.70;71.00
6581;DHT22;3324;50.796;7.228;2023-06-14T08:37:42;24.80;71.40
6581;DHT22;3324;50.796;7.228;2023-06-14T08:40:22;24.90;71.00
6581;DHT22;3324;50.796;7.228;2023-06-14T08:42:51;24.70;71.40
6581;DHT22;3324;50.796;7.228;2023-06-14T08:45:17;24.80;69.20
6581;DHT22;3324;50.796;7.228;2023-06-14T08:47:43;24.80;68.90
6581;DHT22;3324;50.796;7.228;2023-06-14T08:50:11;25.00;70.30
6581;DHT22;3324;50.796;7.228;2023-06-14T08:52:38;25.00;69.40
6581;DHT22;3324;50.796;7.228;2023-06-14T08:55:16;25.10;70.70
6581;DHT22;3324;50.796;7.228;2023-06-14T08:57:44;25.10;69.70
6581;DHT22;3324;50.796;7.228;2023-06-14T09:00:12;25.20;67.30
6581;DHT22;3324;50.796;7.228;2023-06-14T09:02:38;25.20;68.40
6581;DHT22;3324;50.796;7.228;2023-06-14T09:05:11;25.20;66.90
6581;DHT22;3324;50.796;7.228;2023-06-14T09:07:41;25.30;67.70
6581;DHT22;3324;50.796;7.228;2023-06-14T09:10:14;25.50;66.30
6581;DHT22;3324;50.796;7.228;2023-06-14T09:12:41;25.50;67.30
6581;DHT22;3324;50.796;7.228;2023-06-14T09:15:07;25.50;67.10
6581;DHT22;3324;50.796;7.228;2023-06-14T09:17:34;25.50;67.10
6581;DHT22;3324;50.796;7.228;2023-06-14T09:20:03;25.60;68.50
6581;DHT22;3324;50.796;7.228;2023-06-14T09:22:34;25.70;68.20
6581;DHT22;3324;50.796;7.228;2023-06-14T09:25:00;25.80;66.60
6581;DHT22;3324;50.796;7.228;2023-06-14T09:27:26;25.80;66.40
6581;DHT22;3324;50.796;7.228;2023-06-14T09:29:53;25.90;66.40
6581;DHT22;3324;50.796;7.228;2023-06-14T09:32:18;25.90;66.70
6581;DHT22;3324;50.796;7.228;2023-06-14T09:34:45;26.00;67.10
6581;DHT22;3324;50.796;7.228;2023-06-14T09:37:11;26.20;65.90
6581;DHT22;3324;50.796;7.228;2023-06-14T09:39:52;26.20;67.60
6581;DHT22;3324;50.796;7.228;2023-06-14T09:42:18;26.10;66.20
6581;DHT22;3324;50.796;7.228;2023-06-14T09:44:47;26.30;68.00
6581;DHT22;3324;50.796;7.228;2023-06-14T09:47:14;26.40;66.00
6581;DHT22;3324;50.796;7.228;2023-06-14T09:49:41;26.30;66.50
6581;DHT22;3324;50.796;7.228;2023-06-14T09:52:13;26.40;65.70
6581;DHT22;3324;50.796;7.228;2023-06-14T09:54:41;26.50;65.80
6581;DHT22;3324;50.796;7.228;2023-06-14T09:57:13;26.40;62.80
6581;DHT22;3324;50.796;7.228;2023-06-14T09:59:44;26.50;65.60
6581;DHT22;3324;50.796;7.228;2023-06-14T10:02:27;26.50;62.10
6581;DHT22;3324;50.796;7.228;2023-06-14T10:05:07;26.60;62.40
6581;DHT22;3324;50.796;7.228;2023-06-14T10:07:53;26.70;65.10
6581;DHT22;3324;50.796;7.228;2023-06-14T10:10:20;26.60;65.40
6581;DHT22;3324;50.796;7.228;2023-06-14T10:12:46;26.60;63.50
6581;DHT22;3324;50.796;7.228;2023-06-14T10:15:19;26.50;63.50
6581;DHT22;3324;50.796;7.228;2023-06-14T10:18:04;26.30;62.60
6581;DHT22;3324;50.796;7.228;2023-06-14T10:23:21;26.30;63.30
6581;DHT22;3324;50.796;7.228;2023-06-14T10:25:54;26.20;63.40
6581;DHT22;3324;50.796;7.228;2023-06-14T10:28:22;26.40;64.10
6581;DHT22;3324;50.796;7.228;2023-06-14T10:31:02;26.20;61.70
6581;DHT22;3324;50.796;7.228;2023-06-14T10:33:29;26.30;65.60
6581;DHT22;3324;50.796;7.228;2023-06-14T10:36:27;26.30;64.50
6581;DHT22;3324;50.796;7.228;2023-06-14T10:39:06;26.60;63.30
6581;DHT22;3324;50.796;7.228;2023-06-14T10:41:39;26.80;63.90
6581;DHT22;3324;50.796;7.228;2023-06-14T10:46:45;26.90;63.20
6581;DHT22;3324;50.796;7.228;2023-06-14T10:49:11;26.80;62.60
6581;DHT22;3324;50.796;7.228;2023-06-14T10:51:42;26.80;64.30
6581;DHT22;3324;50.796;7.228;2023-06-14T10:54:15;27.00;65.10
6581;DHT22;3324;50.796;7.228;2023-06-14T10:56:53;27.20;60.70
6581;DHT22;3324;50.796;7.228;2023-06-14T10:59:20;27.10;61.60
6581;DHT22;3324;50.796;7.228;2023-06-14T11:04:53;27.30;61.50
6581;DHT22;3324;50.796;7.228;2023-06-14T11:12:56;27.30;61.60
6581;DHT22;3324;50.796;7.228;2023-06-14T11:15:28;27.10;60.90
6581;DHT22;3324;50.796;7.228;2023-06-14T11:17:55;26.90;59.70
6581;DHT22;3324;50.796;7.228;2023-06-14T11:20:25;27.10;61.60
6581;DHT22;3324;50.796;7.228;2023-06-14T11:22:52;27.00;62.30
6581;DHT22;3324;50.796;7.228;2023-06-14T11:25:17;26.70;63.10
6581;DHT22;3324;50.796;7.228;2023-06-14T11:27:44;26.70;63.20
6581;DHT22;3324;50.796;7.228;2023-06-14T11:30:10;26.60;61.80
6581;DHT22;3324;50.796;7.228;2023-06-14T11:32:37;26.80;60.90
6581;DHT22;3324;50.796;7.228;2023-06-14T11:35:03;26.80;62.00
6581;DHT22;3324;50.796;7.228;2023-06-14T11:37:30;26.90;60.70
6581;DHT22;3324;50.796;7.228;2023-06-14T11:39:58;26.90;60.70
6581;DHT22;3324;50.796;7.228;2023-06-14T11:42:26;26.70;58.50
6581;DHT22;3324;50.796;7.228;2023-06-14T11:44:53;26.60;59.80
6581;DHT22;3324;50.796;7.228;2023-06-14T11:47:19;26.30;58.30
6581;DHT22;3324;50.796;7.228;2023-06-14T11:49:46;26.30;58.90
6581;DHT22;3324;50.796;7.228;2023-06-14T11:52:12;26.30;59.70
6581;DHT22;3324;50.796;7.228;2023-06-14T11:54:37;26.30;59.90
6581;DHT22;3324;50.796;7.228;2023-06-14T11:57:06;26.50;59.80
6581;DHT22;3324;50.796;7.228;2023-06-14T11:59:38;26.40;59.40
6581;DHT22;3324;50.796;7.228;2023-06-14T12:02:04;26.50;58.40
6581;DHT22;3324;50.796;7.228;2023-06-14T12:04:29;26.60;58.80
6581;DHT22;3324;50.796;7.228;2023-06-14T12:06:55;26.50;60.40
6581;DHT22;3324;50.796;7.228;2023-06-14T12:09:23;26.70;62.40
6581;DHT22;3324;50.796;7.228;2023-06-14T12:11:59;26.90;63.00
6581;DHT22;3324;50.796;7.228;2023-06-14T12:14:31;26.90;62.00
6581;DHT22;3324;50.796;7.228;2023-06-14T12:17:06;26.80;61.70
6581;DHT22;3324;50.796;7.228;2023-06-14T12:19:32;26.60;60.40
6581;DHT22;3324;50.796;7.228;2023-06-14T12:22:04;26.50;61.50
6581;DHT22;3324;50.796;7.228;2023-06-14T12:24:30;26.50;63.20
6581;DHT22;3324;50.796;7.228;2023-06-14T12:27:00;26.70;62.80
6581;DHT22;3324;50.796;7.228;2023-06-14T12:29:28;26.80;63.00
6581;DHT22;3324;50.796;7.228;2023-06-14T12:31:54;26.80;61.50
6581;DHT22;3324;50.796;7.228;2023-06-14T12:34:24;26.80;60.70
6581;DHT22;3324;50.796;7.228;2023-06-14T12:36:54;26.70;61.70
6581;DHT22;3324;50.796;7.228;2023-06-14T12:39:20;26.80;61.50
6581;DHT22;3324;50.796;7.228;2023-06-14T12:41:47;26.80;61.90
6581;DHT22;3324;50.796;7.228;2023-06-14T12:44:14;26.70;62.30
6581;DHT22;3324;50.796;7.228;2023-06-14T12:46:41;26.80;63.60
6581;DHT22;3324;50.796;7.228;2023-06-14T12:49:11;26.70;63.60
6581;DHT22;3324;50.796;7.228;2023-06-14T12:51:37;26.70;63.00
6581;DHT22;3324;50.796;7.228;2023-06-14T12:54:03;26.60;63.20
6581;DHT22;3324;50.796;7.228;2023-06-14T12:56:29;26.70;63.00
6581;DHT22;3324;50.796;7.228;2023-06-14T12:58:54;26.50;62.00
6581;DHT22;3324;50.796;7.228;2023-06-14T13:01:20;26.10;62.90
6581;DHT22;3324;50.796;7.228;2023-06-14T13:03:47;26.00;63.50
6581;DHT22;3324;50.796;7.228;2023-06-14T13:06:13;26.10;62.90
6581;DHT22;3324;50.796;7.228;2023-06-14T13:08:39;26.10;63.80
6581;DHT22;3324;50.796;7.228;2023-06-14T13:11:04;25.90;63.20
6581;DHT22;3324;50.796;7.228;2023-06-14T13:13:30;25.70;64.90
6581;DHT22;3324;50.796;7.228;2023-06-14T13:15:55;25.50;64.30
6581;DHT22;3324;50.796;7.228;2023-06-14T13:18:21;25.60;65.40
6581;DHT22;3324;50.796;7.228;2023-06-14T13:20:47;26.00;66.60
6581;DHT22;3324;50.796;7.228;2023-06-14T13:23:12;26.20;64.00
6581;DHT22;3324;50.796;7.228;2023-06-14T13:25:40;26.10;64.10
6581;DHT22;3324;50.796;7.228;2023-06-14T13:31:28;25.80;66.00
6581;DHT22;3324;50.796;7.228;2023-06-14T13:33:54;25.80;64.90
6581;DHT22;3324;50.796;7.228;2023-06-14T13:36:19;25.80;63.90
6581;DHT22;3324;50.796;7.228;2023-06-14T13:38:45;25.80;65.30
6581;DHT22;3324;50.796;7.228;2023-06-14T13:41:10;25.70;64.60
6581;DHT22;3324;50.796;7.228;2023-06-14T13:43:36;25.60;64.10
6581;DHT22;3324;50.796;7.228;2023-06-14T13:46:01;25.80;66.30
6581;DHT22;3324;50.796;7.228;2023-06-14T13:48:27;25.90;64.80
6581;DHT22;3324;50.796;7.228;2023-06-14T13:50:53;25.80;65.30
6581;DHT22;3324;50.796;7.228;2023-06-14T13:53:18;25.80;64.50
6581;DHT22;3324;50.796;7.228;2023-06-14T13:55:44;25.60;64.80
6581;DHT22;3324;50.796;7.228;2023-06-14T13:58:10;25.50;66.00
6581;DHT22;3324;50.796;7.228;2023-06-14T14:00:35;25.60;66.40
6581;DHT22;3324;50.796;7.228;2023-06-14T14:03:05;25.70;65.90
6581;DHT22;3324;50.796;7.228;2023-06-14T14:05:31;25.80;63.80
6581;DHT22;3324;50.796;7.228;2023-06-14T14:07:57;25.80;64.40
6581;DHT22;3324;50.796;7.228;2023-06-14T14:10:23;25.70;65.30
6581;DHT22;3324;50.796;7.228;2023-06-14T14:12:50;25.60;64.60
6581;DHT22;3324;50.796;7.228;2023-06-14T14:15:16;25.40;64.70
6581;DHT22;3324;50.796;7.228;2023-06-14T14:17:42;25.30;64.50
6581;DHT22;3324;50.796;7.228;2023-06-14T14:20:08;25.40;65.10
6581;DHT22;3324;50.796;7.228;2023-06-14T14:22:33;25.40;65.70
6581;DHT22;3324;50.796;7.228;2023-06-14T14:24:59;25.30;65.50
6581;DHT22;3324;50.796;7.228;2023-06-14T14:27:25;25.20;66.30
6581;DHT22;3324;50.796;7.228;2023-06-14T14:29:50;25.20;67.00
6581;DHT22;3324;50.796;7.228;2023-06-14T14:32:16;25.20;65.90
6581;DHT22;3324;50.796;7.228;2023-06-14T14:34:41;25.30;63.50
6581;DHT22;3324;50.796;7.228;2023-06-14T14:37:07;25.40;64.60
6581;DHT22;3324;50.796;7.228;2023-06-14T14:39:33;25.40;65.40
6581;DHT22;3324;50.796;7.228;2023-06-14T14:41:58;25.20;64.40
6581;DHT22;3324;50.796;7.228;2023-06-14T14:44:24;25.30;66.00
6581;DHT22;3324;50.796;7.228;2023-06-14T14:46:49;25.40;65.50
6581;DHT22;3324;50.796;7.228;2023-06-14T14:49:15;25.20;64.30
6581;DHT22;3324;50.796;7.228;2023-06-14T14:51:41;25.30;64.90
6581;DHT22;3324;50.796;7.228;2023-06-14T14:54:06;25.20;65.50
6581;DHT22;3324;50.796;7.228;2023-06-14T14:56:32;25.10;66.90
6581;DHT22;3324;50.796;7.228;2023-06-14T14:58:58;24.90;66.40
6581;DHT22;3324;50.796;7.228;2023-06-14T15:01:23;24.70;66.80
6581;DHT22;3324;50.796;7.228;2023-06-14T15:03:49;24.40;65.50
6581;DHT22;3324;50.796;7.228;2023-06-14T15:06:15;24.30;67.50
6581;DHT22;3324;50.796;7.228;2023-06-14T15:08:43;24.20;65.40
6581;DHT22;3324;50.796;7.228;2023-06-14T15:11:08;24.30;65.80
6581;DHT22;3324;50.796;7.228;2023-06-14T15:13:34;24.40;66.70
6581;DHT22;3324;50.796;7.228;2023-06-14T15:15:59;24.60;64.50
6581;DHT22;3324;50.796;7.228;2023-06-14T15:18:25;24.70;64.80
6581;DHT22;3324;50.796;7.228;2023-06-14T15:20:50;24.70;63.30
6581;DHT22;3324;50.796;7.228;2023-06-14T15:23:16;24.70;66.70
6581;DHT22;3324;50.796;7.228;2023-06-14T15:25:46;24.70;65.90
6581;DHT22;3324;50.796;7.228;2023-06-14T15:28:14;24.70;65.50
6581;DHT22;3324;50.796;7.228;2023-06-14T15:30:40;24.70;65.20
6581;DHT22;3324;50.796;7.228;2023-06-14T15:33:06;24.70;64.70
6581;DHT22;3324;50.796;7.228;2023-06-14T15:35:32;24.70;66.50
6581;DHT22;3324;50.796;7.228;2023-06-14T15:37:57;24.80;68.20
6581;DHT22;3324;50.796;7.228;2023-06-14T15:40:23;24.70;66.90
6581;DHT22;3324;50.796;7.228;2023-06-14T15:42:49;24.80;66.50
6581;DHT22;3324;50.796;7.228;2023-06-14T15:45:14;24.70;66.90
6581;DHT22;3324;50.796;7.228;2023-06-14T15:47:41;24.50;67.60
6581;DHT22;3324;50.796;7.228;2023-06-14T15:50:07;24.50;68.00
6581;DHT22;3324;50.796;7.228;2023-06-14T15:52:33;24.40;66.90
6581;DHT22;3324;50.796;7.228;2023-06-14T15:54:59;24.30;66.10
6581;DHT22;3324;50.796;7.228;2023-06-14T15:57:25;24.20;64.80
6581;DHT22;3324;50.796;7.228;2023-06-14T15:59:51;24.10;66.30
6581;DHT22;3324;50.796;7.228;2023-06-14T16:02:17;24.00;67.60
6581;DHT22;3324;50.796;7.228;2023-06-14T16:04:42;24.10;68.40
6581;DHT22;3324;50.796;7.228;2023-06-14T16:07:08;24.10;66.70
6581;DHT22;3324;50.796;7.228;2023-06-14T16:09:34;24.20;67.80
6581;DHT22;3324;50.796;7.228;2023-06-14T16:11:59;24.40;65.50
6581;DHT22;3324;50.796;7.228;2023-06-14T16:14:25;24.40;65.60
6581;DHT22;3324;50.796;7.228;2023-06-14T16:16:51;24.40;66.20
6581;DHT22;3324;50.796;7.228;2023-06-14T16:19:16;24.40;66.60
6581;DHT22;3324;50.796;7.228;2023-06-14T16:21:42;24.40;67.80
6581;DHT22;3324;50.796;7.228;2023-06-14T16:24:07;24.40;68.50
6581;DHT22;3324;50.796;7.228;2023-06-14T16:26:34;24.40;66.50
6581;DHT22;3324;50.796;7.228;2023-06-14T16:28:59;24.30;66.10
6581;DHT22;3324;50.796;7.228;2023-06-14T16:31:25;24.20;65.40